Marble, Minnesota
Current Conditions -  °F | °C
As of 12:55 AM on Thursday 23 Oct 2014 (Local Time) from KGPZ Reporting Station
Overcast Overcast  
Wind Chill: 44°   Ceiling: 2700
Heat Index: 48°   Visibility: 10mi
Dew Point: 43°   Wind: 9mph
Humidity: 82%   Direction: 160°SSE
Pressure: 29.95"   Gusts: NA
Location:  47.32°N, 93.3°W
Report Text: KGPZ 230555Z AUTO 16008KT 10SM BKN027 BKN031 OVC080 09/06 A2995 RMK AO1 10120 20090 57007
Loading
Personal Weather Stations






























Interactive Weather Map
Tropical Storm Tracking
New forecast layout! Learn more

10-Day Weather Forecast

Advertisements
Track Severe Weather on mobile